Time;durP1;ratioP1;P1;durP2;ratioP2;P2;SDS_P1;SDS_P2;PMS_P1;PMS_P2;Temp;Humidity;BMP_temperature;BMP_pressure;BME280_temperature;BME280_humidity;BME280_pressure;Samples;Min_cycle;Max_cycle;Signal;HPM_P1;HPM_P2
2021/06/12 00:00:20;;;;;;;14.07;10.95;;;;;;;15.39;70.37;100529.77;1687389;84;25905;-77
2021/06/12 00:02:49;;;;;;;12.63;10.40;;;;;;;15.45;70.72;100532.14;1657502;84;25780;-76
2021/06/12 00:05:17;;;;;;;15.93;12.25;;;;;;;15.45;70.74;100526.73;1662168;84;27326;-76
2021/06/12 00:07:44;;;;;;;17.23;13.93;;;;;;;15.43;70.60;100528.83;1646365;84;25896;-76
2021/06/12 00:10:16;;;;;;;15.23;10.15;;;;;;;15.39;70.81;100523.55;1682720;83;25810;-76
2021/06/12 00:12:44;;;;;;;13.32;8.90;;;;;;;15.32;70.99;100515.49;1626696;84;25962;-77
2021/06/12 00:15:13;;;;;;;12.98;9.50;;;;;;;15.30;70.90;100508.66;1683964;84;25925;-77
2021/06/12 00:17:40;;;;;;;14.25;9.50;;;;;;;15.33;71.14;100507.69;1644202;84;27274;-76
2021/06/12 00:20:13;;;;;;;17.62;11.22;;;;;;;15.35;71.45;100508.84;1686920;84;26006;-77
2021/06/12 00:22:42;;;;;;;13.83;10.63;;;;;;;15.36;71.56;100514.52;1637652;84;26758;-76
2021/06/12 00:25:12;;;;;;;13.70;10.03;;;;;;;15.33;71.22;100514.44;1685432;84;25845;-76
2021/06/12 00:27:39;;;;;;;15.40;10.28;;;;;;;15.27;71.01;100512.61;1651769;84;26212;-76
2021/06/12 00:30:12;;;;;;;13.10;9.90;;;;;;;15.20;70.93;100520.47;1683617;84;27546;-76
2021/06/12 00:32:39;;;;;;;10.60;8.60;;;;;;;15.14;70.97;100518.11;1622992;85;25887;-77
2021/06/12 00:35:09;;;;;;;19.35;12.20;;;;;;;15.11;71.13;100521.77;1603392;86;25870;-76
2021/06/12 00:37:38;;;;;;;21.80;14.90;;;;;;;15.06;71.67;100514.33;1633930;85;25898;-76
2021/06/12 00:40:09;;;;;;;31.17;18.15;;;;;;;15.06;71.67;100514.33;1653447;85;25954;-76
2021/06/12 00:42:39;;;;;;;18.52;13.05;;;;;;;15.04;71.63;100511.54;1677761;84;27610;-76
2021/06/12 00:45:08;;;;;;;;;;;;;;;15.04;71.83;100511.02;1656366;85;25810;-76
2021/06/12 00:47:35;;;;;;;18.25;12.43;;;;;;;14.99;71.97;100503.30;1683529;84;25794;-76
2021/06/12 00:50:04;;;;;;;20.25;11.63;;;;;;;14.93;72.14;100503.62;1673865;84;26510;-76
2021/06/12 00:52:31;;;;;;;15.75;11.05;;;;;;;14.94;72.02;100503.94;1659198;84;25628;-76
2021/06/12 00:54:58;;;;;;;16.95;12.05;;;;;;;14.94;71.97;100501.24;1603154;86;28192;-76
2021/06/12 00:57:25;;;;;;;24.25;15.95;;;;;;;14.95;72.05;100508.27;1674329;84;25803;-76
2021/06/12 00:59:53;;;;;;;15.93;10.10;;;;;;;14.94;72.16;100504.45;1678103;84;25905;-76
2021/06/12 01:02:19;;;;;;;17.62;9.95;;;;;;;14.92;71.85;100503.84;1629668;85;25750;-76
2021/06/12 01:04:48;;;;;;;12.65;9.55;;;;;;;14.91;71.81;100503.53;1605088;85;25903;-76
2021/06/12 01:07:15;;;;;;;14.03;8.68;;;;;;;14.89;71.70;100502.92;1668398;85;28182;-76
2021/06/12 01:09:42;;;;;;;12.18;9.55;;;;;;;14.85;71.61;100499.84;1685329;84;25888;-77
2021/06/12 01:12:35;;;;;;;9.53;8.53;;;;;;;14.81;71.59;100502.67;1606191;85;25804;-76
2021/06/12 01:15:05;;;;;;;15.38;10.13;;;;;;;14.80;71.54;100493.45;1674587;84;25754;-76
2021/06/12 01:18:01;;;;;;;8.95;8.05;;;;;;;14.78;71.50;100495.55;1676775;84;25842;-76
2021/06/12 01:21:00;;;;;;;9.15;7.03;;;;;;;14.75;71.44;100498.66;1676716;84;28158;-76
2021/06/12 01:24:26;;;;;;;7.92;6.97;;;;;;;14.69;71.18;100493.08;1632504;85;25900;-76
2021/06/12 01:27:32;;;;;;;11.57;8.23;;;;;;;14.60;71.13;100492.21;1633490;84;25861;-76
2021/06/12 01:30:19;;;;;;;10.45;8.43;;;;;;;14.53;71.26;100502.19;1674710;84;26082;-76
2021/06/12 01:32:54;;;;;;;11.93;9.00;;;;;;;14.50;71.39;100499.91;1674467;84;25792;-76
2021/06/12 01:35:32;;;;;;;11.33;9.63;;;;;;;14.52;71.57;100489.77;1676347;84;28202;-76
2021/06/12 01:38:01;;;;;;;13.68;9.60;;;;;;;14.55;71.81;100487.97;1639315;84;25870;-76
2021/06/12 01:40:38;;;;;;;12.63;10.35;;;;;;;14.54;71.74;100493.88;1655159;84;25869;-76
2021/06/12 01:43:10;;;;;;;15.05;12.23;;;;;;;14.53;71.80;100490.89;1676879;84;26512;-77
2021/06/12 01:45:44;;;;;;;14.40;11.83;;;;;;;14.51;71.83;100499.72;1648721;84;25878;-76
2021/06/12 01:48:13;;;;;;;13.68;11.88;;;;;;;14.47;71.83;100494.97;1656217;85;28210;-76
2021/06/12 01:50:42;;;;;;;12.40;11.20;;;;;;;14.44;71.91;100497.56;1622270;86;25943;-76
2021/06/12 01:53:10;;;;;;;13.18;10.78;;;;;;;14.41;72.11;100489.09;1685030;84;25780;-77
2021/06/12 01:55:38;;;;;;;13.75;11.90;;;;;;;14.39;72.38;100488.48;1661796;84;26542;-76
2021/06/12 01:58:13;;;;;;;13.08;11.57;;;;;;;14.40;72.58;100488.25;1633008;84;26634;-76
2021/06/12 02:00:41;;;;;;;13.68;12.28;;;;;;;14.42;72.79;100485.34;1659116;84;27671;-77
2021/06/12 02:03:10;;;;;;;16.60;12.45;;;;;;;14.44;72.94;100485.44;1644871;84;26120;-76
2021/06/12 02:05:38;;;;;;;16.65;12.43;;;;;;;14.45;72.98;100484.41;1663416;84;26637;-76
2021/06/12 02:08:07;;;;;;;15.93;13.20;;;;;;;14.46;72.99;100486.05;1648003;85;26513;-76
2021/06/12 02:10:35;;;;;;;15.35;12.58;;;;;;;14.46;73.07;100484.70;1691709;82;25888;-76
2021/06/12 02:13:02;;;;;;;15.15;12.90;;;;;;;14.45;73.25;100477.67;1705138;83;27247;-76
2021/06/12 02:15:31;;;;;;;18.52;12.53;;;;;;;14.44;73.21;100479.21;1668284;84;25905;-76
2021/06/12 02:18:06;;;;;;;15.38;11.97;;;;;;;14.45;73.44;100479.53;1653985;83;25961;-76
2021/06/12 02:20:37;;;;;;;14.55;12.43;;;;;;;14.44;73.53;100480.56;1691718;83;26608;-76
2021/06/12 02:23:07;;;;;;;12.93;11.53;;;;;;;14.43;73.63;100483.80;1671655;84;26518;-76
2021/06/12 02:25:36;;;;;;;18.23;12.47;;;;;;;14.44;73.75;100478.70;1694693;84;27437;-76
2021/06/12 02:28:11;;;;;;;12.18;10.82;;;;;;;14.45;73.71;100478.19;1660329;83;25877;-76
2021/06/12 02:30:52;;;;;;;14.90;11.63;;;;;;;14.44;74.01;100475.17;1668002;84;25857;-76
2021/06/12 02:33:22;;;;;;;13.38;11.22;;;;;;;14.47;74.08;100475.59;1690300;83;26217;-76
2021/06/12 02:35:49;;;;;;;13.88;12.00;;;;;;;14.49;74.15;100476.71;1667174;84;25886;-76
2021/06/12 02:38:16;;;;;;;14.63;12.07;;;;;;;14.52;74.23;100474.41;1666258;84;27524;-77
2021/06/12 02:40:43;;;;;;;17.23;11.15;;;;;;;14.53;74.23;100480.11;1657504;84;25924;-76
2021/06/12 02:43:10;;;;;;;14.20;11.60;;;;;;;14.55;74.38;100480.72;1688483;83;25862;-77
2021/06/12 02:45:37;;;;;;;16.57;11.48;;;;;;;14.59;74.78;100479.77;1661349;83;25894;-77
2021/06/12 02:48:09;;;;;;;15.15;10.95;;;;;;;14.64;74.84;100471.86;1644357;84;25966;-77
2021/06/12 02:50:38;;;;;;;15.70;11.57;;;;;;;14.74;75.16;100476.77;1668411;84;28163;-76
2021/06/12 02:53:08;;;;;;;14.80;10.43;;;;;;;14.83;75.33;100472.78;1658404;84;25854;-76
2021/06/12 02:55:43;;;;;;;14.60;10.68;;;;;;;14.91;75.68;100467.12;1664722;83;26637;-76
2021/06/12 02:58:13;;;;;;;14.95;11.55;;;;;;;14.99;75.79;100474.97;1682706;83;25838;-76
2021/06/12 03:00:42;;;;;;;13.32;11.48;;;;;;;15.05;75.86;100469.53;1644089;84;25863;-77
2021/06/12 03:03:14;;;;;;;16.77;11.55;;;;;;;15.11;75.96;100467.81;1701704;83;28216;-76
2021/06/12 03:05:49;;;;;;;20.08;11.65;;;;;;;15.15;75.99;100469.86;1665561;83;26544;-76
2021/06/12 03:08:18;;;;;;;13.53;10.93;;;;;;;15.21;76.17;100467.63;1664344;83;25307;-76
2021/06/12 03:10:47;;;;;;;12.45;10.63;;;;;;;15.27;76.40;100464.05;1678527;83;25809;-76
2021/06/12 03:13:19;;;;;;;14.85;11.35;;;;;;;15.30;76.23;100463.61;1706707;83;25733;-76
2021/06/12 03:15:48;;;;;;;15.90;10.63;;;;;;;15.35;76.32;100461.61;1708494;83;27441;-76
2021/06/12 03:18:16;;;;;;;14.58;10.30;;;;;;;15.39;76.26;100458.25;1645267;84;25853;-76
2021/06/12 03:20:43;;;;;;;17.42;9.88;;;;;;;15.43;76.01;100460.00;1713975;83;26602;-76
2021/06/12 03:23:10;;;;;;;12.78;9.93;;;;;;;15.43;75.77;100462.70;1698774;83;25984;-76
2021/06/12 03:25:38;;;;;;;11.43;10.20;;;;;;;15.43;75.64;100465.40;1656904;83;25878;-76
2021/06/12 03:28:06;;;;;;;13.20;10.82;;;;;;;15.42;75.61;100468.58;1639578;83;28142;-76
2021/06/12 03:30:33;;;;;;;13.32;10.78;;;;;;;15.48;75.58;100465.58;1675819;83;25952;-76
2021/06/12 03:33:02;;;;;;;11.78;10.38;;;;;;;15.52;75.53;100462.73;1694507;84;25901;-76
2021/06/12 03:35:29;;;;;;;13.43;10.78;;;;;;;15.56;75.39;100463.09;1687629;84;26223;-76
2021/06/12 03:37:57;;;;;;;18.45;10.80;;;;;;;15.58;75.41;100466.41;1656381;83;25811;-76
2021/06/12 03:40:24;;;;;;;14.50;10.70;;;;;;;15.63;75.86;100463.32;1655154;84;27551;-77
2021/06/12 03:42:54;;;;;;;14.20;10.65;;;;;;;15.71;76.07;100464.41;1633768;84;26554;-77
2021/06/12 03:45:23;;;;;;;14.78;11.20;;;;;;;15.79;75.85;100460.06;1653676;84;25966;-77
2021/06/12 03:47:52;;;;;;;18.45;12.63;;;;;;;15.87;75.95;100454.88;1640432;84;25835;-76
2021/06/12 03:50:21;;;;;;;13.15;10.55;;;;;;;15.96;76.14;100457.58;1676985;84;25937;-77
2021/06/12 03:52:50;;;;;;;17.42;11.60;;;;;;;16.03;76.09;100461.05;1660701;84;27600;-77
2021/06/12 03:55:19;;;;;;;14.58;12.40;;;;;;;16.10;76.05;100463.16;1655446;84;25756;-77
2021/06/12 03:57:48;;;;;;;13.53;11.75;;;;;;;16.17;76.09;100461.17;1661928;84;26608;-77
2021/06/12 04:00:17;;;;;;;15.18;10.90;;;;;;;16.18;76.06;100459.62;1665472;84;25850;-77
2021/06/12 04:02:44;;;;;;;16.60;12.23;;;;;;;16.26;76.12;100461.70;1711713;83;25959;-77
2021/06/12 04:05:11;;;;;;;16.37;12.30;;;;;;;16.34;76.03;100461.41;1662050;83;27524;-77
2021/06/12 04:07:40;;;;;;;16.77;12.55;;;;;;;16.43;76.21;100458.15;1631010;84;25982;-77
2021/06/12 04:10:09;;;;;;;14.40;12.90;;;;;;;16.54;76.17;100458.77;1660157;84;26154;-77
2021/06/12 04:12:37;;;;;;;15.70;13.88;;;;;;;16.65;75.99;100455.80;1717454;83;25718;-77
2021/06/12 04:15:06;;;;;;;19.07;13.95;;;;;;;16.77;76.03;100457.50;1690450;83;25928;-76
2021/06/12 04:17:33;;;;;;;20.27;14.00;;;;;;;16.88;75.98;100454.00;1689630;83;27496;-77
2021/06/12 04:20:00;;;;;;;19.82;13.62;;;;;;;17.00;75.73;100443.19;1657936;83;25942;-76
2021/06/12 04:22:27;;;;;;;18.77;14.38;;;;;;;17.13;75.67;100442.98;1675956;84;26415;-77
2021/06/12 04:24:54;;;;;;;16.12;14.03;;;;;;;17.25;75.52;100438.95;1679586;83;25977;-77
2021/06/12 04:27:22;;;;;;;18.12;13.55;;;;;;;17.34;75.33;100441.62;1670148;84;26763;-77
2021/06/12 04:29:49;;;;;;;19.67;13.55;;;;;;;17.40;75.21;100448.27;1694624;83;28180;-76
2021/06/12 04:32:16;;;;;;;17.35;13.53;;;;;;;17.46;75.09;100448.69;1704805;83;26576;-77
2021/06/12 04:34:43;;;;;;;19.15;14.25;;;;;;;17.54;75.19;100444.30;1650553;83;25830;-77
2021/06/12 04:37:10;;;;;;;21.57;14.18;;;;;;;17.63;75.14;100442.05;1667115;84;26108;-77
2021/06/12 04:39:37;;;;;;;22.07;14.33;;;;;;;17.71;75.04;100446.58;1659304;83;25933;-76
2021/06/12 04:42:05;;;;;;;18.95;13.32;;;;;;;17.78;75.12;100436.98;1691339;83;28164;-77
2021/06/12 04:44:32;;;;;;;15.15;13.10;;;;;;;17.87;75.01;100439.63;1683000;84;26011;-76
2021/06/12 04:46:59;;;;;;;16.23;13.85;;;;;;;17.99;75.06;100443.13;1626462;84;25828;-76
2021/06/12 04:49:28;;;;;;;15.38;12.95;;;;;;;18.13;74.97;100443.70;1661186;84;25572;-77
2021/06/12 04:51:55;;;;;;;19.27;14.98;;;;;;;18.27;75.35;100435.57;1691003;83;25796;-77
2021/06/12 04:54:22;;;;;;;17.75;14.07;;;;;;;18.40;75.03;100435.30;1658736;84;28308;-77
2021/06/12 04:56:49;;;;;;;17.02;13.85;;;;;;;18.55;75.12;100438.33;1639313;84;25862;-76
2021/06/12 04:59:16;;;;;;;19.55;12.43;;;;;;;18.66;74.88;100446.95;1649770;84;26399;-77
2021/06/12 05:01:43;;;;;;;19.67;14.23;;;;;;;18.74;74.40;100449.27;1680324;84;25862;-77
2021/06/12 05:04:10;;;;;;;16.60;12.15;;;;;;;18.82;74.25;100449.43;1663887;84;25880;-76
2021/06/12 05:06:37;;;;;;;19.45;12.28;;;;;;;18.93;74.39;100443.92;1671135;84;27550;-77
2021/06/12 05:09:05;;;;;;;16.70;12.70;;;;;;;19.06;74.11;100448.20;1638730;85;25852;-77
2021/06/12 05:11:32;;;;;;;17.20;12.07;;;;;;;19.18;74.03;100441.63;1621363;85;25998;-77
2021/06/12 05:13:59;;;;;;;18.52;15.53;;;;;;;19.25;73.36;100438.22;1662288;85;25959;-76
2021/06/12 05:16:26;;;;;;;19.70;15.98;;;;;;;19.29;73.11;100440.45;1659474;85;25964;-76
2021/06/12 05:18:53;;;;;;;16.82;13.93;;;;;;;19.31;72.93;100436.95;1618250;86;27630;-77
2021/06/12 05:21:20;;;;;;;16.50;12.28;;;;;;;19.37;72.71;100439.53;1628133;85;25868;-77
2021/06/12 05:23:48;;;;;;;15.13;12.47;;;;;;;19.48;72.82;100439.95;1656310;85;26562;-77
2021/06/12 05:26:16;;;;;;;17.37;12.55;;;;;;;19.50;72.60;100441.92;1668587;85;26020;-76
2021/06/12 05:28:43;;;;;;;17.82;12.40;;;;;;;19.48;72.37;100437.80;1657556;84;26109;-76
2021/06/12 05:31:10;;;;;;;14.87;11.55;;;;;;;19.44;72.11;100437.45;1647290;84;27520;-78
2021/06/12 05:33:37;;;;;;;16.62;13.48;;;;;;;19.39;72.03;100439.28;1667790;84;25823;-78
2021/06/12 05:36:06;;;;;;;20.97;13.70;;;;;;;19.36;71.89;100439.77;1658029;85;25333;-76
2021/06/12 05:38:33;;;;;;;18.23;13.83;;;;;;;19.34;72.53;100440.52;1644133;84;26044;-76
2021/06/12 05:41:01;;;;;;;18.30;13.25;;;;;;;19.34;72.09;100438.66;1651620;84;25993;-76
2021/06/12 05:43:28;;;;;;;20.97;14.85;;;;;;;19.39;72.31;100438.75;1663774;84;27500;-76
2021/06/12 05:45:55;;;;;;;17.95;13.35;;;;;;;19.47;71.79;100435.61;1686937;84;25838;-76
2021/06/12 05:48:25;;;;;;;16.42;13.28;;;;;;;19.57;72.20;100433.56;1628036;85;25936;-77
2021/06/12 05:50:52;;;;;;;16.52;12.63;;;;;;;19.65;71.92;100429.09;1627391;84;25877;-77
2021/06/12 05:53:19;;;;;;;17.15;13.95;;;;;;;19.64;71.50;100420.63;1693650;84;25865;-77
2021/06/12 05:55:46;;;;;;;15.00;12.18;;;;;;;19.64;71.62;100420.63;1679745;84;27558;-76
2021/06/12 05:58:13;;;;;;;14.85;12.65;;;;;;;19.62;71.16;100419.53;1637165;84;26242;-76
2021/06/12 06:00:40;;;;;;;21.05;13.90;;;;;;;19.69;71.42;100422.91;1635287;84;25959;-76
2021/06/12 06:03:07;;;;;;;15.72;13.38;;;;;;;19.78;71.42;100411.86;1678431;84;26185;-77
2021/06/12 06:05:34;;;;;;;18.32;13.32;;;;;;;19.91;71.76;100411.50;1679629;84;25985;-77
2021/06/12 06:08:01;;;;;;;18.57;13.35;;;;;;;20.01;71.83;100416.27;1667507;83;27590;-76
2021/06/12 06:10:28;;;;;;;13.55;12.15;;;;;;;20.11;71.35;100425.89;1662570;83;26587;-77
2021/06/12 06:13:02;;;;;;;15.75;12.25;;;;;;;20.25;71.14;100418.22;1687982;84;26624;-76
2021/06/12 06:15:29;;;;;;;15.78;13.40;;;;;;;20.35;70.89;100423.77;1686677;84;25837;-76
2021/06/12 06:17:56;;;;;;;12.73;11.45;;;;;;;20.44;71.03;100418.16;1620208;84;25787;-76
2021/06/12 06:20:24;;;;;;;15.65;12.20;;;;;;;20.58;70.77;100420.75;1651757;84;27476;-76
2021/06/12 06:22:51;;;;;;;13.90;11.22;;;;;;;20.71;70.83;100418.98;1689481;83;25986;-77
2021/06/12 06:25:18;;;;;;;15.70;10.65;;;;;;;20.78;69.87;100417.69;1705278;83;25946;-77
2021/06/12 06:27:45;;;;;;;11.45;10.25;;;;;;;20.90;69.74;100408.53;1629040;84;26362;-76
2021/06/12 06:30:14;;;;;;;11.55;9.88;;;;;;;20.97;68.75;100407.26;1661338;83;25819;-76
2021/06/12 06:32:41;;;;;;;12.98;9.90;;;;;;;21.06;68.48;100411.19;1681795;84;28164;-77
2021/06/12 06:35:10;;;;;;;12.28;10.03;;;;;;;21.10;67.47;100407.39;1693002;83;25854;-77
2021/06/12 06:37:37;;;;;;;13.95;9.45;;;;;;;21.15;68.12;100408.80;1638358;84;25915;-77
2021/06/12 06:40:06;;;;;;;11.38;9.15;;;;;;;21.26;67.70;100406.41;1637606;84;26216;-77
2021/06/12 06:42:33;;;;;;;14.95;9.25;;;;;;;21.33;67.23;100401.57;1678196;84;25801;-77
2021/06/12 06:45:00;;;;;;;9.60;8.15;;;;;;;21.43;67.41;100407.08;1685687;83;28300;-77
2021/06/12 06:47:27;;;;;;;10.53;8.18;;;;;;;21.57;66.79;100408.28;1644292;83;25908;-77
2021/06/12 06:49:54;;;;;;;9.85;8.53;;;;;;;21.63;66.29;100407.76;1650474;84;25901;-77
2021/06/12 06:52:22;;;;;;;11.55;8.63;;;;;;;21.70;65.83;100416.53;1690114;84;25814;-77
2021/06/12 06:54:49;;;;;;;9.88;8.18;;;;;;;21.82;66.05;100409.81;1693920;84;25859;-77
2021/06/12 06:57:16;;;;;;;12.55;8.00;;;;;;;21.89;65.26;100404.13;1633190;83;27635;-77
2021/06/12 06:59:43;;;;;;;9.98;7.85;;;;;;;21.85;64.87;100405.20;1647816;82;26503;-77
2021/06/12 07:02:10;;;;;;;12.73;8.23;;;;;;;21.87;64.26;100404.94;1688285;84;25810;-77
2021/06/12 07:04:37;;;;;;;9.78;8.78;;;;;;;21.89;64.27;100396.77;1690907;83;26493;-77
2021/06/12 07:07:05;;;;;;;10.38;8.18;;;;;;;21.89;64.03;100394.05;1637576;83;26619;-76
2021/06/12 07:09:32;;;;;;;9.28;7.53;;;;;;;21.96;64.62;100393.80;1627625;84;28280;-77
2021/06/12 07:12:04;;;;;;;11.18;7.45;;;;;;;22.05;64.28;100391.64;1690357;84;26462;-77
2021/06/12 07:14:31;;;;;;;8.85;6.83;;;;;;;22.16;63.78;100378.86;1692375;84;25896;-77
2021/06/12 07:16:58;;;;;;;8.98;6.58;;;;;;;22.19;62.48;100383.79;1644238;84;25848;-77
2021/06/12 07:19:25;;;;;;;8.90;6.75;;;;;;;22.17;62.09;100384.61;1644617;84;25932;-77
2021/06/12 07:21:52;;;;;;;11.73;7.10;;;;;;;22.16;62.24;100384.31;1691321;84;27585;-77
2021/06/12 07:24:19;;;;;;;8.80;7.15;;;;;;;22.25;61.74;100381.35;1682053;84;25743;-77
2021/06/12 07:26:46;;;;;;;9.33;6.42;;;;;;;22.38;62.05;100373.20;1636297;84;25980;-77
2021/06/12 07:29:14;;;;;;;12.37;6.92;;;;;;;22.49;62.25;100368.03;1623843;84;26431;-76
2021/06/12 07:31:42;;;;;;;7.90;7.08;;;;;;;22.58;60.99;100369.95;1685564;84;26016;-77
2021/06/12 07:34:10;;;;;;;5.62;5.00;;;;;;;22.65;60.82;100361.52;1687163;84;27590;-77
2021/06/12 07:36:39;;;;;;;11.28;5.33;;;;;;;22.78;61.71;100363.73;1654379;84;26614;-77
2021/06/12 07:39:07;;;;;;;7.85;5.40;;;;;;;22.97;60.88;100360.72;1645843;84;26302;-77
2021/06/12 07:41:35;;;;;;;7.72;4.85;;;;;;;23.12;60.39;100353.88;1672411;84;26320;-77
2021/06/12 07:44:04;;;;;;;8.10;4.90;;;;;;;23.21;59.10;100350.88;1656833;85;25951;-77
2021/06/12 07:46:31;;;;;;;12.10;5.10;;;;;;;23.23;58.31;100351.95;1625420;84;27533;-77
2021/06/12 07:48:58;;;;;;;5.40;4.87;;;;;;;23.23;58.47;100347.31;1650803;83;25796;-77
2021/06/12 07:51:31;;;;;;;8.08;5.42;;;;;;;23.25;57.07;100351.12;1706394;81;26598;-77
2021/06/12 07:53:54;;;;;;;6.95;6.03;;;;;;;23.22;56.59;100349.80;1708748;83;26005;-77
2021/06/12 07:56:21;;;;;;;7.70;6.55;;;;;;;23.27;56.65;100341.56;1664681;83;25814;-77
2021/06/12 07:58:48;;;;;;;9.53;7.25;;;;;;;23.36;56.55;100337.75;1653164;83;28303;-77
2021/06/12 08:01:15;;;;;;;8.88;6.15;;;;;;;23.48;55.67;100338.29;1690278;82;25770;-77
2021/06/12 08:03:42;;;;;;;8.03;5.87;;;;;;;23.58;55.78;100325.95;1687761;84;26534;-77
2021/06/12 08:06:09;;;;;;;10.15;5.40;;;;;;;23.63;55.49;100326.73;1653343;83;26455;-77
2021/06/12 08:08:36;;;;;;;8.73;5.50;;;;;;;23.67;56.10;100325.65;1662220;82;25992;-77
2021/06/12 08:11:03;;;;;;;9.28;6.67;;;;;;;23.81;55.19;100328.05;1711213;83;27439;-77
2021/06/12 08:13:30;;;;;;;12.58;8.73;;;;;;;23.84;54.55;100325.30;1676626;84;26559;-76
2021/06/12 08:15:57;;;;;;;9.68;5.67;;;;;;;23.88;53.57;100321.73;1636449;84;26289;-77
2021/06/12 08:18:24;;;;;;;5.40;4.90;;;;;;;23.92;53.85;100316.50;1646813;84;25994;-77
2021/06/12 08:20:52;;;;;;;7.00;5.53;;;;;;;23.91;54.20;100321.15;1682872;83;25807;-76
2021/06/12 08:23:19;;;;;;;7.87;6.65;;;;;;;23.93;54.36;100322.26;1705212;83;28294;-77
2021/06/12 08:25:47;;;;;;;5.42;4.65;;;;;;;23.94;54.88;100326.07;1649146;85;25798;-77
2021/06/12 08:28:14;;;;;;;6.45;4.40;;;;;;;23.97;55.32;100320.05;1662831;84;25989;-76
2021/06/12 08:30:41;;;;;;;5.72;4.42;;;;;;;23.99;55.01;100323.86;1696619;82;26254;-77
2021/06/12 08:33:09;;;;;;;7.42;5.42;;;;;;;24.01;54.96;100321.13;1692824;82;25869;-77
2021/06/12 08:35:39;;;;;;;8.25;5.22;;;;;;;24.07;55.23;100325.48;1683153;82;28142;-77
2021/06/12 08:38:07;;;;;;;5.97;5.43;;;;;;;24.14;55.04;100326.02;1669598;84;25875;-78
2021/06/12 08:40:36;;;;;;;7.10;5.47;;;;;;;24.20;55.04;100321.31;1647916;84;25687;-76
2021/06/12 08:43:05;;;;;;;8.08;5.10;;;;;;;24.26;54.28;100313.33;1659516;84;26317;-79
2021/06/12 08:45:33;;;;;;;6.95;6.00;;;;;;;24.27;53.55;100310.30;1661352;85;25857;-77
2021/06/12 08:48:02;;;;;;;8.25;5.58;;;;;;;24.20;54.43;100314.47;1624555;85;28507;-78
2021/06/12 08:50:31;;;;;;;7.42;5.20;;;;;;;24.19;54.16;100309.54;1654540;83;25736;-77
2021/06/12 08:52:58;;;;;;;5.70;5.20;;;;;;;24.17;53.90;100304.90;1673449;83;25753;-77
2021/06/12 08:55:25;;;;;;;6.08;4.75;;;;;;;24.17;53.67;100305.44;1694504;83;25922;-77
2021/06/12 08:57:52;;;;;;;6.78;4.35;;;;;;;24.19;54.26;100304.06;1648099;83;25792;-77
2021/06/12 09:00:21;;;;;;;6.60;5.37;;;;;;;24.26;54.58;100303.75;1647184;84;28370;-77
2021/06/12 09:03:17;;;;;;;7.83;4.70;;;;;;;24.32;55.34;100302.61;1676800;83;25884;-77
2021/06/12 09:06:00;;;;;;;6.87;5.55;;;;;;;24.37;53.93;100297.94;1666834;84;25859;-77
2021/06/12 09:08:29;;;;;;;11.30;5.03;;;;;;;24.31;53.86;100302.36;1664998;83;25860;-77
2021/06/12 09:11:10;;;;;;;7.85;5.78;;;;;;;24.31;53.93;100294.97;1653488;84;25773;-77
2021/06/12 09:13:58;;;;;;;6.42;5.65;;;;;;;24.31;53.97;100290.87;1693589;83;27508;-77
2021/06/12 09:16:39;;;;;;;6.28;4.95;;;;;;;24.35;53.89;100283.72;1679892;84;25841;-77
2021/06/12 09:19:12;;;;;;;;;;;;;;;24.36;53.79;100280.41;1690329;83;25887;-78
2021/06/12 09:21:46;;;;;;;6.25;4.72;;;;;;;24.51;54.24;100282.48;1670602;83;26103;-77
2021/06/12 09:24:31;;;;;;;4.30;3.90;;;;;;;24.67;54.57;100280.98;1690498;83;26288;-77
2021/06/12 09:27:06;;;;;;;4.17;3.58;;;;;;;24.88;53.99;100270.97;1662894;84;27506;-77
2021/06/12 09:29:48;;;;;;;5.35;4.00;;;;;;;25.03;53.35;100269.45;1647653;84;25855;-78
2021/06/12 09:32:29;;;;;;;4.03;3.62;;;;;;;25.09;52.88;100268.83;1671142;84;25877;-77
2021/06/12 09:35:06;;;;;;;8.33;5.25;;;;;;;25.07;52.66;100273.24;1683649;83;25825;-77
2021/06/12 09:37:35;;;;;;;6.30;4.72;;;;;;;25.05;51.14;100269.15;1655190;84;25325;-77
2021/06/12 09:40:12;;;;;;;10.15;5.50;;;;;;;24.95;52.20;100261.86;1659247;84;27538;-78
2021/06/12 09:42:54;;;;;;;6.58;5.62;;;;;;;24.99;52.62;100265.66;1672854;84;25370;-77
2021/06/12 09:45:33;;;;;;;7.60;5.20;;;;;;;24.99;51.22;100261.55;1689347;84;26719;-77
2021/06/12 09:48:15;;;;;;;6.87;5.28;;;;;;;24.92;51.94;100251.47;1623729;84;25951;-77
2021/06/12 09:50:45;;;;;;;5.60;5.00;;;;;;;24.92;52.55;100253.39;1682436;83;25986;-78
2021/06/12 09:53:22;;;;;;;10.32;5.10;;;;;;;24.91;50.89;100250.40;1664238;84;27530;-77
2021/06/12 09:55:49;;;;;;;5.28;3.58;;;;;;;24.82;51.05;100244.73;1703643;83;26652;-78
2021/06/12 09:58:16;;;;;;;4.92;4.45;;;;;;;24.77;51.56;100246.14;1653577;83;25790;-77
2021/06/12 10:00:47;;;;;;;6.35;4.47;;;;;;;24.84;51.62;100235.67;1677719;83;26216;-77
2021/06/12 10:03:24;;;;;;;8.33;5.00;;;;;;;24.88;52.09;100229.87;1680697;83;25898;-77
2021/06/12 10:06:15;;;;;;;6.53;5.37;;;;;;;24.93;51.55;100231.20;1704256;83;27506;-77
2021/06/12 10:08:49;;;;;;;4.83;3.25;;;;;;;24.97;52.05;100231.42;1674820;83;26037;-77
2021/06/12 10:11:25;;;;;;;4.62;3.72;;;;;;;24.98;51.52;100227.02;1667562;83;25925;-77
2021/06/12 10:13:51;;;;;;;7.20;4.33;;;;;;;24.93;51.34;100224.34;1708032;83;26541;-78
2021/06/12 10:16:18;;;;;;;5.40;4.75;;;;;;;24.95;52.03;100217.20;1706096;83;25799;-78
2021/06/12 10:18:48;;;;;;;5.65;3.33;;;;;;;24.99;51.69;100208.66;1658534;83;27645;-78
2021/06/12 10:21:16;;;;;;;3.62;3.00;;;;;;;24.98;51.48;100213.86;1678708;83;25918;-78
2021/06/12 10:23:46;;;;;;;3.55;3.08;;;;;;;25.01;50.58;100207.27;1685530;84;25873;-78
2021/06/12 10:26:16;;;;;;;6.63;3.00;;;;;;;25.08;50.24;100211.84;1684633;84;25869;-78
2021/06/12 10:28:43;;;;;;;4.40;3.50;;;;;;;25.20;50.63;100211.42;1644289;84;25896;-78
2021/06/12 10:31:15;;;;;;;8.95;5.03;;;;;;;25.36;49.33;100210.15;1649226;84;27565;-77
2021/06/12 10:33:46;;;;;;;4.30;3.52;;;;;;;25.40;48.03;100205.70;1673965;83;25371;-78
2021/06/12 10:36:19;;;;;;;6.65;3.12;;;;;;;25.41;48.14;100190.86;1693102;84;26739;-78
2021/06/12 10:38:47;;;;;;;4.97;3.67;;;;;;;25.48;49.16;100194.66;1651177;83;25846;-78
2021/06/12 10:41:18;;;;;;;3.65;2.80;;;;;;;25.55;47.70;100186.34;1701851;83;26779;-78
2021/06/12 10:43:47;;;;;;;6.75;5.55;;;;;;;25.50;47.26;100182.28;1702050;83;27586;-78
2021/06/12 10:46:19;;;;;;;4.87;3.40;;;;;;;25.45;47.85;100174.11;1700750;83;25816;-78
2021/06/12 10:49:04;;;;;;;4.17;2.70;;;;;;;25.49;48.16;100171.04;1647957;84;26509;-78
2021/06/12 10:51:36;;;;;;;4.35;3.12;;;;;;;25.60;48.19;100166.26;1650174;84;25829;-78
2021/06/12 10:54:19;;;;;;;4.28;3.17;;;;;;;25.64;48.17;100165.34;1679854;84;25851;-78
2021/06/12 10:56:59;;;;;;;4.58;3.02;;;;;;;25.61;48.07;100164.58;1694215;84;27576;-78
2021/06/12 10:59:40;;;;;;;5.55;4.72;;;;;;;25.65;48.23;100156.02;1679620;83;25906;-78
2021/06/12 11:02:18;;;;;;;;;;;;;;;25.77;47.68;100144.60;1664351;83;25931;-79
2021/06/12 11:04:53;;;;;;;7.37;3.50;;;;;;;25.80;47.15;100137.95;1708721;83;25527;-78
2021/06/12 11:07:27;;;;;;;3.55;2.72;;;;;;;25.75;46.94;100132.53;1689277;83;25932;-79
2021/06/12 11:10:15;;;;;;;4.12;3.10;;;;;;;25.84;47.32;100122.52;1642259;83;27464;-78
2021/06/12 11:12:43;;;;;;;4.28;2.95;;;;;;;25.94;47.68;100114.66;1684267;83;25944;-78
2021/06/12 11:15:30;;;;;;;6.12;4.22;;;;;;;26.12;48.44;100111.11;1720565;83;27010;-78
2021/06/12 11:18:21;;;;;;;4.47;3.80;;;;;;;26.25;47.95;100104.84;1694382;83;26133;-78
2021/06/12 11:21:02;;;;;;;8.60;3.70;;;;;;;26.43;47.96;100089.42;1680675;83;25994;-77
2021/06/12 11:23:55;;;;;;;3.90;3.00;;;;;;;26.47;47.30;100088.52;1645944;84;28370;-78
2021/06/12 11:26:23;;;;;;;4.47;3.60;;;;;;;26.42;45.63;100082.28;1676149;84;26012;-78
2021/06/12 11:29:14;;;;;;;6.85;4.35;;;;;;;26.30;46.92;100080.05;1654611;84;26754;-78
2021/06/12 11:31:41;;;;;;;3.50;3.10;;;;;;;26.33;46.06;100067.63;1649665;84;29681;-78